Terminal Aerodrome Forecast
Issued by NWS

Current Version | Previous Version | Text Only | Print | Product List | Glossary On
Versions: 1 2 3 4 5 6 7 8 9 10 11 12 13 14 15 16
000
FTUS45 KSLC 251120
TAFEVW
TAF
KEVW 251120Z 2512/2612 VRB05KT P6SM SKC
     FM251700 23018G27KT P6SM FEW080
     FM260200 22012KT P6SM SCT080=

USA.gov is the U.S. government's official web portal to all federal, state and local government web resources and services.